createdAt,value
2023-04-15T00:00:58.496Z,16.65
2023-04-15T00:03:25.745Z,16.76
2023-04-15T00:05:52.785Z,16.82
2023-04-15T00:08:20.617Z,16.72
2023-04-15T00:10:47.970Z,16.81
2023-04-15T00:13:15.532Z,16.85
2023-04-15T00:15:43.387Z,16.90
2023-04-15T00:18:10.413Z,16.90
2023-04-15T00:20:37.724Z,16.93
2023-04-15T00:23:05.645Z,16.92
2023-04-15T00:25:33.039Z,16.81
2023-04-15T00:27:59.926Z,16.87
2023-04-15T00:30:26.788Z,16.89
2023-04-15T00:32:53.816Z,16.91
2023-04-15T00:35:22.534Z,16.90
2023-04-15T00:37:51.488Z,16.84
2023-04-15T00:40:21.090Z,16.83
2023-04-15T00:42:48.356Z,16.79
2023-04-15T00:45:15.788Z,16.80
2023-04-15T00:47:44.214Z,16.81
2023-04-15T00:50:12.633Z,16.78
2023-04-15T00:52:40.219Z,16.74
2023-04-15T00:55:08.001Z,16.64
2023-04-15T00:57:36.063Z,16.62
2023-04-15T01:00:04.685Z,16.56
2023-04-15T01:02:33.013Z,16.48
2023-04-15T01:05:01.984Z,16.45
2023-04-15T01:07:28.793Z,16.46
2023-04-15T01:09:55.719Z,16.45
2023-04-15T01:12:24.688Z,16.41
2023-04-15T01:14:51.484Z,16.43
2023-04-15T01:17:19.123Z,16.46
2023-04-15T01:19:46.676Z,16.51
2023-04-15T01:22:13.598Z,16.48
2023-04-15T01:24:41.132Z,16.47
2023-04-15T01:27:07.938Z,16.47
2023-04-15T01:29:38.572Z,16.43
2023-04-15T01:32:05.945Z,16.40
2023-04-15T01:34:35.552Z,16.39
2023-04-15T01:37:02.595Z,16.27
2023-04-15T01:39:29.331Z,16.11
2023-04-15T01:41:57.482Z,16.05
2023-04-15T01:44:24.592Z,16.07
2023-04-15T01:46:51.362Z,16.16
2023-04-15T01:49:18.970Z,16.19
2023-04-15T01:51:45.785Z,16.20
2023-04-15T01:54:13.072Z,16.14
2023-04-15T01:56:39.883Z,16.19
2023-04-15T01:59:06.722Z,16.17
2023-04-15T02:01:33.994Z,16.09
2023-04-15T02:04:01.159Z,16.05
2023-04-15T02:06:28.348Z,16.07
2023-04-15T02:08:55.598Z,16.09
2023-04-15T02:11:23.208Z,16.00
2023-04-15T02:13:50.177Z,16.00
2023-04-15T02:16:20.709Z,15.85
2023-04-15T02:18:48.019Z,15.85
2023-04-15T02:21:14.910Z,15.77
2023-04-15T02:23:41.679Z,15.78
2023-04-15T02:26:08.524Z,15.80
2023-04-15T02:28:35.906Z,15.80
2023-04-15T02:31:06.639Z,15.77
2023-04-15T02:33:33.864Z,15.71
2023-04-15T02:36:01.085Z,15.64
2023-04-15T02:38:28.659Z,15.63
2023-04-15T02:40:55.689Z,15.53
2023-04-15T02:43:22.586Z,15.50
2023-04-15T02:45:51.413Z,15.43
2023-04-15T02:48:20.316Z,15.28
2023-04-15T02:50:48.002Z,15.32
2023-04-15T02:53:16.170Z,15.25
2023-04-15T02:55:43.063Z,15.11
2023-04-15T02:58:10.019Z,15.05
2023-04-15T03:00:37.137Z,15.07
2023-04-15T03:03:05.676Z,15.02
2023-04-15T03:05:32.888Z,15.07
2023-04-15T03:08:01.476Z,15.15
2023-04-15T03:10:28.608Z,15.18
2023-04-15T03:12:55.733Z,15.21
2023-04-15T03:15:24.007Z,15.14
2023-04-15T03:17:53.213Z,14.81
2023-04-15T03:20:20.430Z,14.88
2023-04-15T03:22:48.452Z,14.84
2023-04-15T03:25:15.748Z,14.82
2023-04-15T03:27:43.322Z,14.69
2023-04-15T03:30:12.431Z,14.73
2023-04-15T03:32:40.855Z,14.59
2023-04-15T03:35:09.673Z,14.56
2023-04-15T03:37:36.863Z,14.50
2023-04-15T03:40:03.825Z,14.53
2023-04-15T03:42:30.628Z,14.51
2023-04-15T03:44:57.369Z,14.30
2023-04-15T03:47:24.242Z,14.20
2023-04-15T03:49:51.118Z,14.29
2023-04-15T03:52:17.888Z,14.27
2023-04-15T03:54:44.756Z,14.38
2023-04-15T03:57:11.624Z,14.44
2023-04-15T03:59:38.425Z,14.46
2023-04-15T04:02:05.260Z,14.52
2023-04-15T04:04:32.114Z,14.45
2023-04-15T04:06:58.943Z,14.57
2023-04-15T04:09:25.936Z,14.58
2023-04-15T04:11:52.689Z,14.49
2023-04-15T04:14:19.452Z,14.51
2023-04-15T04:16:46.629Z,14.44
2023-04-15T04:19:14.786Z,14.52
2023-04-15T04:21:41.607Z,14.50
2023-04-15T04:24:08.394Z,14.56
2023-04-15T04:26:35.127Z,14.60
2023-04-15T04:29:02.142Z,14.58
2023-04-15T04:31:29.363Z,14.47
2023-04-15T04:33:56.105Z,14.57
2023-04-15T04:36:22.902Z,14.55
2023-04-15T04:38:49.678Z,14.42
2023-04-15T04:41:16.418Z,14.41
2023-04-15T04:43:43.106Z,14.27
2023-04-15T04:46:10.531Z,14.41
2023-04-15T04:48:37.300Z,14.47
2023-04-15T04:51:04.176Z,14.56
2023-04-15T04:53:31.172Z,14.48
2023-04-15T04:55:58.268Z,14.52
2023-04-15T04:58:25.033Z,14.38
2023-04-15T05:00:52.104Z,14.43
2023-04-15T05:03:19.378Z,14.41
2023-04-15T05:05:46.474Z,14.28
2023-04-15T05:08:13.193Z,14.26
2023-04-15T05:10:39.915Z,14.30
2023-04-15T05:13:06.726Z,14.22
2023-04-15T05:15:35.105Z,14.16
2023-04-15T05:18:02.009Z,14.20
2023-04-15T05:20:29.106Z,14.15
2023-04-15T05:22:55.902Z,14.11
2023-04-15T05:25:23.078Z,14.19
2023-04-15T05:27:49.839Z,14.18
2023-04-15T05:30:16.903Z,14.11
2023-04-15T05:32:43.715Z,14.17
2023-04-15T05:35:10.749Z,14.12
2023-04-15T05:37:37.576Z,14.13
2023-04-15T05:40:04.623Z,14.18
2023-04-15T05:42:31.476Z,14.15
2023-04-15T05:44:58.383Z,14.16
2023-04-15T05:47:25.183Z,14.03
2023-04-15T05:49:52.081Z,13.88
2023-04-15T05:52:18.862Z,13.68
2023-04-15T05:54:45.737Z,13.72
2023-04-15T05:57:12.622Z,13.58
2023-04-15T05:59:39.382Z,13.65
2023-04-15T06:02:06.505Z,13.68
2023-04-15T06:04:33.476Z,13.74
2023-04-15T06:07:00.695Z,13.65
2023-04-15T06:09:28.907Z,13.78
2023-04-15T06:11:56.949Z,13.81
2023-04-15T06:14:23.879Z,13.94
2023-04-15T06:16:51.286Z,13.98
2023-04-15T06:19:18.503Z,14.04
2023-04-15T06:21:45.642Z,14.10
2023-04-15T06:24:12.473Z,14.22
2023-04-15T06:26:39.232Z,14.32
2023-04-15T06:29:06.043Z,14.30
2023-04-15T06:31:32.846Z,14.29
2023-04-15T06:33:59.626Z,14.27
2023-04-15T06:36:26.618Z,14.45
2023-04-15T06:38:53.398Z,14.63
2023-04-15T06:41:20.398Z,14.84
2023-04-15T06:43:47.382Z,14.98
2023-04-15T06:46:14.144Z,15.29
2023-04-15T06:48:41.359Z,15.44
2023-04-15T06:51:08.187Z,15.64
2023-04-15T06:53:35.669Z,15.78
2023-04-15T06:56:02.482Z,15.79
2023-04-15T06:58:29.255Z,15.96
2023-04-15T07:00:56.846Z,15.77
2023-04-15T07:03:23.568Z,15.77
2023-04-15T07:05:50.304Z,15.88
2023-04-15T07:08:17.030Z,15.72
2023-04-15T07:10:43.904Z,15.77
2023-04-15T07:13:11.197Z,15.97
2023-04-15T07:15:38.028Z,15.98
2023-04-15T07:18:04.790Z,15.91
2023-04-15T07:20:31.815Z,15.91
2023-04-15T07:22:59.022Z,16.12
2023-04-15T07:25:25.780Z,16.32
2023-04-15T07:27:54.055Z,16.45
2023-04-15T07:30:20.835Z,16.59
2023-04-15T07:32:47.636Z,16.66
2023-04-15T07:35:14.788Z,16.79
2023-04-15T07:37:43.272Z,16.94
2023-04-15T07:40:10.681Z,16.88
2023-04-15T07:42:39.378Z,16.94
2023-04-15T07:45:08.514Z,16.89
2023-04-15T07:47:35.758Z,16.90
2023-04-15T07:50:02.535Z,16.88
2023-04-15T07:52:29.283Z,16.69
2023-04-15T07:54:56.176Z,16.76
2023-04-15T07:57:22.910Z,16.93
2023-04-15T07:59:49.641Z,17.14
2023-04-15T08:02:16.569Z,17.16
2023-04-15T08:04:44.223Z,17.17
2023-04-15T08:07:11.104Z,17.15
2023-04-15T08:09:37.911Z,17.22
2023-04-15T08:12:05.032Z,17.24
2023-04-15T08:14:31.881Z,17.19
2023-04-15T08:16:58.601Z,17.11
2023-04-15T08:19:25.380Z,17.32
2023-04-15T08:21:52.162Z,17.41
2023-04-15T08:24:18.927Z,17.55
2023-04-15T08:26:46.903Z,17.62
2023-04-15T08:29:13.853Z,17.70
2023-04-15T08:31:40.791Z,17.80
2023-04-15T08:34:07.672Z,17.93
2023-04-15T08:36:34.406Z,18.10
2023-04-15T08:39:05.103Z,18.38
2023-04-15T08:41:40.215Z,18.34
2023-04-15T08:44:07.518Z,18.55
2023-04-15T08:46:37.833Z,18.69
2023-04-15T08:49:05.759Z,18.70
2023-04-15T08:51:34.019Z,18.67
2023-04-15T08:54:02.590Z,18.70
2023-04-15T08:56:33.038Z,18.88
2023-04-15T08:59:00.717Z,18.85
2023-04-15T09:01:27.819Z,19.08
2023-04-15T09:03:55.119Z,19.22
2023-04-15T09:06:22.884Z,19.31
2023-04-15T09:08:50.606Z,19.13
2023-04-15T09:11:20.029Z,19.30
2023-04-15T09:13:47.067Z,19.57
2023-04-15T09:16:14.387Z,19.61
2023-04-15T09:18:42.325Z,19.33
2023-04-15T09:21:11.856Z,19.01
2023-04-15T09:23:40.692Z,19.34
2023-04-15T09:26:08.422Z,19.51
2023-04-15T09:28:42.412Z,19.38
2023-04-15T09:31:10.630Z,19.65
2023-04-15T09:33:54.991Z,19.73
2023-04-15T09:36:21.842Z,19.89
2023-04-15T09:38:56.734Z,19.90
2023-04-15T09:41:24.993Z,19.98
2023-04-15T09:43:52.023Z,20.28
2023-04-15T09:46:19.346Z,20.48
2023-04-15T09:48:46.278Z,20.31
2023-04-15T09:51:13.019Z,20.31
2023-04-15T09:53:39.750Z,20.34
2023-04-15T09:56:08.876Z,20.36
2023-04-15T09:58:36.176Z,20.48
2023-04-15T10:01:07.760Z,20.56
2023-04-15T10:03:36.995Z,20.85
2023-04-15T10:06:05.497Z,20.35
2023-04-15T10:08:34.999Z,20.61
2023-04-15T10:11:03.178Z,20.33
2023-04-15T10:13:38.198Z,20.28
2023-04-15T10:16:12.386Z,20.64
2023-04-15T10:18:43.522Z,20.87
2023-04-15T10:21:10.579Z,20.82
2023-04-15T10:23:38.471Z,20.98
2023-04-15T10:26:06.264Z,21.12
2023-04-15T10:28:33.004Z,21.22
2023-04-15T10:31:01.177Z,21.40
2023-04-15T10:33:29.361Z,21.55
2023-04-15T10:35:56.739Z,21.75
2023-04-15T10:38:43.994Z,21.71
2023-04-15T10:41:24.585Z,21.56
2023-04-15T10:43:55.334Z,21.64
2023-04-15T10:46:42.698Z,21.40
2023-04-15T10:49:11.034Z,21.41
2023-04-15T10:51:42.863Z,21.50
2023-04-15T10:54:14.798Z,21.52
2023-04-15T10:56:42.021Z,21.46
2023-04-15T10:59:09.481Z,21.31
2023-04-15T11:01:54.409Z,21.37
2023-04-15T11:04:57.707Z,21.20
2023-04-15T11:07:39.869Z,21.07
2023-04-15T11:10:18.796Z,21.07
2023-04-15T11:12:51.404Z,21.19
2023-04-15T11:15:34.171Z,20.99
2023-04-15T11:18:16.543Z,21.28
2023-04-15T11:20:51.007Z,21.19
2023-04-15T11:23:19.764Z,21.30
2023-04-15T11:25:46.605Z,21.34
2023-04-15T11:28:13.787Z,21.41
2023-04-15T11:30:42.807Z,21.35
2023-04-15T11:33:14.799Z,21.46
2023-04-15T11:35:42.103Z,21.47
2023-04-15T11:38:14.465Z,21.55
2023-04-15T11:40:45.286Z,21.22
2023-04-15T11:43:16.679Z,21.12
2023-04-15T11:45:56.425Z,21.06
2023-04-15T11:48:28.020Z,20.91
2023-04-15T11:50:59.320Z,20.89
2023-04-15T11:53:37.175Z,20.60
2023-04-15T11:56:04.189Z,20.61
2023-04-15T11:58:31.665Z,20.39
2023-04-15T12:01:00.352Z,20.63
2023-04-15T12:03:32.144Z,20.27
2023-04-15T12:06:14.500Z,20.56
2023-04-15T12:08:57.860Z,20.58
2023-04-15T12:11:34.105Z,20.78
2023-04-15T12:14:15.880Z,20.72
2023-04-15T12:16:49.269Z,20.39
2023-04-15T12:19:22.790Z,20.59
2023-04-15T12:21:50.281Z,20.26
2023-04-15T12:24:22.666Z,20.53
2023-04-15T12:26:57.751Z,20.60
2023-04-15T12:29:29.294Z,20.53
2023-04-15T12:32:12.222Z,20.34
2023-04-15T12:34:53.304Z,20.37
2023-04-15T12:37:20.234Z,20.23
2023-04-15T12:39:49.151Z,20.31
2023-04-15T12:42:17.470Z,20.37
2023-04-15T12:44:44.322Z,20.30
2023-04-15T12:47:12.147Z,20.41
2023-04-15T12:49:39.828Z,20.27
2023-04-15T12:52:06.871Z,19.85
2023-04-15T12:54:34.607Z,19.97
2023-04-15T12:57:05.470Z,20.01
2023-04-15T12:59:33.307Z,20.32
2023-04-15T13:02:01.223Z,20.47
2023-04-15T13:04:30.800Z,20.49
2023-04-15T13:06:57.962Z,20.48
2023-04-15T13:09:25.118Z,20.48
2023-04-15T13:11:52.890Z,20.47
2023-04-15T13:14:19.981Z,20.48
2023-04-15T13:16:47.272Z,20.29
2023-04-15T13:19:14.349Z,20.32
2023-04-15T13:21:41.427Z,20.32
2023-04-15T13:24:08.562Z,20.25
2023-04-15T13:26:36.082Z,20.24
2023-04-15T13:29:04.854Z,20.03
2023-04-15T13:31:31.667Z,19.94
2023-04-15T13:33:58.437Z,19.72
2023-04-15T13:36:26.446Z,19.50
2023-04-15T13:38:53.251Z,19.42
2023-04-15T13:41:21.304Z,19.35
2023-04-15T13:43:48.132Z,19.40
2023-04-15T13:46:15.295Z,19.23
2023-04-15T13:48:42.395Z,18.80
2023-04-15T13:51:09.266Z,18.75
2023-04-15T13:53:38.931Z,18.86
2023-04-15T13:56:09.424Z,18.89
2023-04-15T13:58:37.766Z,18.93
2023-04-15T14:01:06.745Z,18.99
2023-04-15T14:03:37.232Z,19.03
2023-04-15T14:06:05.755Z,19.14
2023-04-15T14:08:32.814Z,19.28
2023-04-15T14:10:59.744Z,19.21
2023-04-15T14:13:26.464Z,19.16
2023-04-15T14:15:53.503Z,19.01
2023-04-15T14:18:20.384Z,19.18
2023-04-15T14:20:47.203Z,19.12
2023-04-15T14:23:13.944Z,19.13
2023-04-15T14:25:40.974Z,19.09
2023-04-15T14:28:07.822Z,19.07
2023-04-15T14:30:34.763Z,19.12
2023-04-15T14:33:01.772Z,19.12
2023-04-15T14:35:28.719Z,19.12
2023-04-15T14:37:55.794Z,19.29
2023-04-15T14:40:24.923Z,19.13
2023-04-15T14:42:51.646Z,19.00
2023-04-15T14:45:18.456Z,19.19
2023-04-15T14:47:45.498Z,19.29
2023-04-15T14:50:12.663Z,19.29
2023-04-15T14:52:39.701Z,19.14
2023-04-15T14:55:10.964Z,19.25
2023-04-15T14:57:42.716Z,19.04
2023-04-15T15:00:13.798Z,19.21
2023-04-15T15:02:43.645Z,18.87
2023-04-15T15:05:12.322Z,19.32
2023-04-15T15:07:40.859Z,19.53
2023-04-15T15:10:08.280Z,19.42
2023-04-15T15:12:35.150Z,19.29
2023-04-15T15:15:12.324Z,19.23
2023-04-15T15:17:46.739Z,19.04
2023-04-15T15:20:13.595Z,19.03
2023-04-15T15:22:40.649Z,19.13
2023-04-15T15:25:07.539Z,19.15
2023-04-15T15:27:35.485Z,19.16
2023-04-15T15:30:04.547Z,19.05
2023-04-15T15:32:31.614Z,18.91
2023-04-15T15:34:58.445Z,19.06
2023-04-15T15:37:25.318Z,18.87
2023-04-15T15:39:53.307Z,18.81
2023-04-15T15:42:20.237Z,18.69
2023-04-15T15:44:49.349Z,18.49
2023-04-15T15:47:16.979Z,18.61
2023-04-15T15:49:43.991Z,18.63
2023-04-15T15:52:11.733Z,18.81
2023-04-15T15:54:39.974Z,18.77
2023-04-15T15:57:07.412Z,18.54
2023-04-15T15:59:34.368Z,18.58
2023-04-15T16:02:02.528Z,18.59
2023-04-15T16:04:29.815Z,18.49
2023-04-15T16:06:56.708Z,18.57
2023-04-15T16:09:23.541Z,18.64
2023-04-15T16:11:50.410Z,18.65
2023-04-15T16:14:17.268Z,18.64
2023-04-15T16:16:44.137Z,18.55
2023-04-15T16:19:10.940Z,18.54
2023-04-15T16:21:37.746Z,18.19
2023-04-15T16:24:04.521Z,18.40
2023-04-15T16:26:31.428Z,18.62
2023-04-15T16:28:58.394Z,18.63
2023-04-15T16:31:25.575Z,18.44
2023-04-15T16:33:52.427Z,18.39
2023-04-15T16:36:19.242Z,18.53
2023-04-15T16:38:48.469Z,18.25
2023-04-15T16:41:16.282Z,18.45
2023-04-15T16:43:43.050Z,18.53
2023-04-15T16:46:09.843Z,18.50
2023-04-15T16:48:36.630Z,18.50
2023-04-15T16:51:03.391Z,18.46
2023-04-15T16:53:30.391Z,18.56
2023-04-15T16:55:57.261Z,18.62
2023-04-15T16:58:24.031Z,18.82
2023-04-15T17:00:51.378Z,19.03
2023-04-15T17:03:18.269Z,18.92
2023-04-15T17:05:46.168Z,19.03
2023-04-15T17:08:12.972Z,19.19
2023-04-15T17:10:39.763Z,19.39
2023-04-15T17:13:06.613Z,19.48
2023-04-15T17:15:33.436Z,19.45
2023-04-15T17:18:00.337Z,19.39
2023-04-15T17:20:27.177Z,19.43
2023-04-15T17:22:54.026Z,19.40
2023-04-15T17:25:20.906Z,19.42
2023-04-15T17:27:47.739Z,19.33
2023-04-15T17:30:14.545Z,18.93
2023-04-15T17:32:41.431Z,18.83
2023-04-15T17:35:08.590Z,18.53
2023-04-15T17:37:35.839Z,18.63
2023-04-15T17:40:03.093Z,18.66
2023-04-15T17:42:29.883Z,18.68
2023-04-15T17:44:56.713Z,18.66
2023-04-15T17:47:23.540Z,18.67
2023-04-15T17:49:59.579Z,18.67
2023-04-15T17:52:26.436Z,18.63
2023-04-15T17:54:53.191Z,18.63
2023-04-15T17:57:20.203Z,18.60
2023-04-15T17:59:47.909Z,18.60
2023-04-15T18:02:15.479Z,18.58
2023-04-15T18:04:42.725Z,18.57
2023-04-15T18:07:09.687Z,18.57
2023-04-15T18:09:36.825Z,18.56
2023-04-15T18:12:04.666Z,18.57
2023-04-15T18:14:34.706Z,18.51
2023-04-15T18:17:04.909Z,18.48
2023-04-15T18:19:32.094Z,18.46
2023-04-15T18:22:00.257Z,18.46
2023-04-15T18:24:27.904Z,18.43
2023-04-15T18:26:54.782Z,18.38
2023-04-15T18:29:21.580Z,18.38
2023-04-15T18:31:48.488Z,18.34
2023-04-15T18:34:15.422Z,18.28
2023-04-15T18:36:42.306Z,18.25
2023-04-15T18:39:09.282Z,18.24
2023-04-15T18:41:36.156Z,18.26
2023-04-15T18:44:02.914Z,18.26
2023-04-15T18:46:32.051Z,18.25
2023-04-15T18:48:58.817Z,18.15
2023-04-15T18:51:26.005Z,18.13
2023-04-15T18:53:52.841Z,18.10
2023-04-15T18:56:19.602Z,18.11
2023-04-15T18:59:25.357Z,18.10
2023-04-15T19:01:33.232Z,18.05
2023-04-15T19:04:00.207Z,18.09
2023-04-15T19:06:27.380Z,18.07
2023-04-15T19:08:54.799Z,18.09
2023-04-15T19:11:21.798Z,18.08
2023-04-15T19:13:48.636Z,18.07
2023-04-15T19:16:15.497Z,18.06
2023-04-15T19:18:43.076Z,18.07
2023-04-15T19:21:11.416Z,18.07
2023-04-15T19:23:38.846Z,18.07
2023-04-15T19:26:08.211Z,18.03
2023-04-15T19:28:35.245Z,17.94
2023-04-15T19:31:02.161Z,17.92
2023-04-15T19:33:31.366Z,17.92
2023-04-15T19:36:06.042Z,17.78
2023-04-15T19:38:35.042Z,17.64
2023-04-15T19:41:01.883Z,17.60
2023-04-15T19:43:30.954Z,17.34
2023-04-15T19:45:57.935Z,17.21
2023-04-15T19:48:25.662Z,17.23
2023-04-15T19:50:52.538Z,17.15
2023-04-15T19:53:19.378Z,17.12
2023-04-15T19:55:47.220Z,17.01
2023-04-15T19:58:14.301Z,16.99
2023-04-15T20:00:41.162Z,16.82
2023-04-15T20:03:08.042Z,16.84
2023-04-15T20:05:35.610Z,16.73
2023-04-15T20:08:03.097Z,16.76
2023-04-15T20:10:31.679Z,16.82
2023-04-15T20:12:58.668Z,16.68
2023-04-15T20:15:26.093Z,16.80
2023-04-15T20:17:52.974Z,16.65
2023-04-15T20:20:20.423Z,16.55
2023-04-15T20:22:47.435Z,16.38
2023-04-15T20:25:14.336Z,16.38
2023-04-15T20:27:41.196Z,16.34
2023-04-15T20:30:08.707Z,16.27
2023-04-15T20:32:36.293Z,16.07
2023-04-15T20:35:07.094Z,16.06
2023-04-15T20:37:34.623Z,15.90
2023-04-15T20:40:01.840Z,15.94
2023-04-15T20:42:33.296Z,15.99
2023-04-15T20:45:00.103Z,16.03
2023-04-15T20:47:27.067Z,16.25
2023-04-15T20:49:54.259Z,16.38
2023-04-15T20:52:21.182Z,16.41
2023-04-15T20:54:47.961Z,16.44
2023-04-15T20:57:14.734Z,16.56
2023-04-15T20:59:41.478Z,16.60
2023-04-15T21:02:08.322Z,16.63
2023-04-15T21:04:35.392Z,16.55
2023-04-15T21:07:02.122Z,16.41
2023-04-15T21:09:29.103Z,16.41
2023-04-15T21:14:25.667Z,16.29
2023-04-15T21:16:52.400Z,16.34
2023-04-15T21:19:19.250Z,16.31
2023-04-15T21:21:46.145Z,16.33
2023-04-15T21:24:12.960Z,16.39
2023-04-15T21:26:39.738Z,16.42
2023-04-15T21:29:08.761Z,16.42
2023-04-15T21:31:37.454Z,16.42
2023-04-15T21:34:04.366Z,16.36
2023-04-15T21:36:31.892Z,16.25
2023-04-15T21:38:58.752Z,16.26
2023-04-15T21:41:25.961Z,16.32
2023-04-15T21:43:53.364Z,16.36
2023-04-15T21:46:23.259Z,16.27
2023-04-15T21:48:53.599Z,15.91
2023-04-15T21:51:20.673Z,15.91
2023-04-15T21:53:47.640Z,15.91
2023-04-15T21:56:14.518Z,15.97
2023-04-15T21:58:41.499Z,16.09
2023-04-15T22:01:08.305Z,16.05
2023-04-15T22:03:35.714Z,16.05
2023-04-15T22:06:03.690Z,16.10
2023-04-15T22:08:38.705Z,16.07
2023-04-15T22:11:28.771Z,16.19
2023-04-15T22:13:57.183Z,16.19
2023-04-15T22:16:25.762Z,16.11
2023-04-15T22:18:52.720Z,16.16
2023-04-15T22:21:19.828Z,16.24
2023-04-15T22:23:47.788Z,16.30
2023-04-15T22:26:14.996Z,16.31
2023-04-15T22:28:42.078Z,16.07
2023-04-15T22:31:09.053Z,16.08
2023-04-15T22:33:36.052Z,16.02
2023-04-15T22:36:02.892Z,16.05
2023-04-15T22:38:29.721Z,15.94
2023-04-15T22:40:56.530Z,16.06
2023-04-15T22:43:23.356Z,16.07
2023-04-15T22:45:51.189Z,16.13
2023-04-15T22:48:18.812Z,16.14
2023-04-15T22:50:46.170Z,16.14
2023-04-15T22:53:13.151Z,16.17
2023-04-15T22:55:39.917Z,16.13
2023-04-15T22:58:06.852Z,16.14
2023-04-15T23:00:33.592Z,16.13
2023-04-15T23:03:00.623Z,16.07
2023-04-15T23:05:27.764Z,16.07
2023-04-15T23:07:54.757Z,16.10
2023-04-15T23:10:21.754Z,16.02
2023-04-15T23:12:48.722Z,16.08
2023-04-15T23:15:15.824Z,16.02
2023-04-15T23:17:43.369Z,16.00
2023-04-15T23:20:11.407Z,15.91
2023-04-15T23:22:38.963Z,15.95
2023-04-15T23:25:08.716Z,15.93
2023-04-15T23:27:36.434Z,15.75
2023-04-15T23:30:03.952Z,15.74
2023-04-15T23:32:30.893Z,15.82
2023-04-15T23:34:57.791Z,15.88
2023-04-15T23:37:24.486Z,15.89
2023-04-15T23:39:58.622Z,15.94
2023-04-15T23:42:25.967Z,15.91
2023-04-15T23:44:52.863Z,15.91
2023-04-15T23:47:26.888Z,15.93
2023-04-15T23:49:53.815Z,15.93
2023-04-15T23:52:20.739Z,15.87
2023-04-15T23:54:47.494Z,15.87
2023-04-15T23:57:14.272Z,15.87
2023-04-15T23:59:41.028Z,15.86
